Main page
METAR-TAF:

METAR-TAF

Airports :

Colmenar Viejo, Spain

latitude: 40-39N, longitude: 003-44W, elevation: -999 m

Current weather observation

The report was made 1 hour and 26 minutes ago, at 18:00 UTC
Wind 4 kt from the Southwest
Temperature 15°C
Humidity 59%
Pressure 1014 hPa
Visibility 10 km or more
Few clouds at a height of 5000 ft

METAR: LECV 171800Z 22004KT 9999 FEW050 15/07 Q1014

Time: 21:26 (19:26 UTC)

Forecast

The report was made 2 hours and 26 minutes ago, at 17:00 UTC
Forecast valid from 17 at 18 UTC to 18 at 03 UTC
Wind 5 kt from variable directions
Visibility 10 km or more
Few clouds at a height of 4000 ft

TAF: LECV 171700Z 1718/1803 VRB05KT 9999 FEW040

Weather observations and forecasts of more than 4000 airports (METAR and TAF reports).

The available stations are represented by yellow and red dots on the map.

Hover mouse over dot to see the name of the station.

Then click to see weather observations and forecasts.

To change the map : click on the green buttons with a black cross to zoom in, on the green button with a dash to zoom out, or on the green arrows for adjacent maps.


METAR-TAF: